Masset, Canada
Current Conditions -  °F | °C
As of 11:00 AM on Tuesday 27 Jan 2015 (Local Time) from CYZP Reporting Station
Overcast Overcast  
Wind Chill: 38°   Ceiling: 4100
Heat Index: 43°   Visibility: 9mi
Dew Point: 36°   Wind: 8mph
Humidity: 76%   Direction: 260°W
Pressure: 30.03"   Gusts: NA
Location:  54.02°N, 132.15°W
Report Text: CYZP 271900Z AUTO 26007KT 9SM OVC041 06/02 A3003 RMK SLP168
Loading
Personal Weather Stations






























Interactive Weather Map New forecast layout! Learn more

10-Day Weather Forecast

Advertisements
Track Severe Weather on mobile